sensor_id;sensor_type;location;lat;lon;timestamp;P1;durP1;ratioP1;P2;durP2;ratioP2
27740;SDS011;15134;48.768;9.184;2023-12-20T00:01:31;823.42;;;658.65;;
27740;SDS011;15134;48.768;9.184;2023-12-20T00:03:57;825.90;;;663.47;;
27740;SDS011;15134;48.768;9.184;2023-12-20T00:06:23;826.10;;;661.33;;
27740;SDS011;15134;48.768;9.184;2023-12-20T00:08:49;824.92;;;661.13;;
27740;SDS011;15134;48.768;9.184;2023-12-20T00:11:15;824.05;;;654.40;;
27740;SDS011;15134;48.768;9.184;2023-12-20T00:13:40;817.83;;;645.53;;
27740;SDS011;15134;48.768;9.184;2023-12-20T00:16:06;824.80;;;660.53;;
27740;SDS011;15134;48.768;9.184;2023-12-20T00:18:32;822.92;;;657.30;;
27740;SDS011;15134;48.768;9.184;2023-12-20T00:20:57;820.97;;;655.67;;
27740;SDS011;15134;48.768;9.184;2023-12-20T00:23:23;822.53;;;659.55;;
27740;SDS011;15134;48.768;9.184;2023-12-20T00:25:49;824.83;;;661.97;;
27740;SDS011;15134;48.768;9.184;2023-12-20T00:28:15;825.05;;;656.67;;
27740;SDS011;15134;48.768;9.184;2023-12-20T00:30:40;828.70;;;669.95;;
27740;SDS011;15134;48.768;9.184;2023-12-20T00:33:06;829.20;;;672.38;;
27740;SDS011;15134;48.768;9.184;2023-12-20T00:35:32;829.70;;;672.07;;
27740;SDS011;15134;48.768;9.184;2023-12-20T00:37:58;829.73;;;676.40;;
27740;SDS011;15134;48.768;9.184;2023-12-20T00:40:24;831.40;;;674.35;;
27740;SDS011;15134;48.768;9.184;2023-12-20T00:42:50;830.53;;;674.40;;
27740;SDS011;15134;48.768;9.184;2023-12-20T00:45:15;831.97;;;679.27;;
27740;SDS011;15134;48.768;9.184;2023-12-20T00:47:41;836.17;;;683.45;;
27740;SDS011;15134;48.768;9.184;2023-12-20T00:50:08;832.60;;;680.75;;
27740;SDS011;15134;48.768;9.184;2023-12-20T00:52:34;834.65;;;682.85;;
27740;SDS011;15134;48.768;9.184;2023-12-20T00:55:00;834.97;;;686.07;;
27740;SDS011;15134;48.768;9.184;2023-12-20T00:57:25;833.85;;;686.33;;
27740;SDS011;15134;48.768;9.184;2023-12-20T00:59:51;833.28;;;681.47;;
27740;SDS011;15134;48.768;9.184;2023-12-20T01:02:17;832.83;;;682.17;;
27740;SDS011;15134;48.768;9.184;2023-12-20T01:04:42;834.88;;;685.88;;
27740;SDS011;15134;48.768;9.184;2023-12-20T01:07:08;833.35;;;683.60;;
27740;SDS011;15134;48.768;9.184;2023-12-20T01:09:34;835.97;;;686.58;;
27740;SDS011;15134;48.768;9.184;2023-12-20T01:12:00;831.88;;;682.22;;
27740;SDS011;15134;48.768;9.184;2023-12-20T01:14:26;832.20;;;680.58;;
27740;SDS011;15134;48.768;9.184;2023-12-20T01:16:52;835.20;;;688.90;;
27740;SDS011;15134;48.768;9.184;2023-12-20T01:19:18;832.60;;;683.40;;
27740;SDS011;15134;48.768;9.184;2023-12-20T01:21:43;834.33;;;686.23;;
27740;SDS011;15134;48.768;9.184;2023-12-20T01:24:09;833.25;;;683.78;;
27740;SDS011;15134;48.768;9.184;2023-12-20T01:26:35;835.95;;;688.92;;
27740;SDS011;15134;48.768;9.184;2023-12-20T01:29:01;836.97;;;688.72;;
27740;SDS011;15134;48.768;9.184;2023-12-20T01:31:27;838.20;;;691.45;;
27740;SDS011;15134;48.768;9.184;2023-12-20T01:33:52;835.67;;;686.03;;
27740;SDS011;15134;48.768;9.184;2023-12-20T01:36:18;834.85;;;683.35;;
27740;SDS011;15134;48.768;9.184;2023-12-20T01:38:44;836.63;;;687.50;;
27740;SDS011;15134;48.768;9.184;2023-12-20T01:41:10;838.40;;;691.17;;
27740;SDS011;15134;48.768;9.184;2023-12-20T01:43:36;837.95;;;693.08;;
27740;SDS011;15134;48.768;9.184;2023-12-20T01:46:02;833.60;;;683.10;;
27740;SDS011;15134;48.768;9.184;2023-12-20T01:48:28;834.30;;;683.33;;
27740;SDS011;15134;48.768;9.184;2023-12-20T01:50:57;835.08;;;685.53;;
27740;SDS011;15134;48.768;9.184;2023-12-20T01:53:25;834.58;;;683.95;;
27740;SDS011;15134;48.768;9.184;2023-12-20T01:55:52;835.78;;;683.30;;
27740;SDS011;15134;48.768;9.184;2023-12-20T01:58:20;832.03;;;679.33;;
27740;SDS011;15134;48.768;9.184;2023-12-20T02:00:46;837.35;;;690.40;;
27740;SDS011;15134;48.768;9.184;2023-12-20T02:03:12;834.22;;;686.45;;
27740;SDS011;15134;48.768;9.184;2023-12-20T02:05:38;833.50;;;682.37;;
27740;SDS011;15134;48.768;9.184;2023-12-20T02:08:05;830.22;;;674.63;;
27740;SDS011;15134;48.768;9.184;2023-12-20T02:10:31;834.63;;;686.13;;
27740;SDS011;15134;48.768;9.184;2023-12-20T02:12:57;829.10;;;674.20;;
27740;SDS011;15134;48.768;9.184;2023-12-20T02:15:23;834.47;;;682.65;;
27740;SDS011;15134;48.768;9.184;2023-12-20T02:17:49;834.38;;;686.75;;
27740;SDS011;15134;48.768;9.184;2023-12-20T02:20:15;832.50;;;682.47;;
27740;SDS011;15134;48.768;9.184;2023-12-20T02:22:41;835.83;;;687.75;;
27740;SDS011;15134;48.768;9.184;2023-12-20T02:25:07;833.42;;;683.28;;
27740;SDS011;15134;48.768;9.184;2023-12-20T02:27:33;834.08;;;683.28;;
27740;SDS011;15134;48.768;9.184;2023-12-20T02:30:00;829.95;;;675.95;;
27740;SDS011;15134;48.768;9.184;2023-12-20T02:32:25;836.67;;;691.83;;
27740;SDS011;15134;48.768;9.184;2023-12-20T02:34:51;833.45;;;684.08;;
27740;SDS011;15134;48.768;9.184;2023-12-20T02:37:17;834.10;;;684.28;;
27740;SDS011;15134;48.768;9.184;2023-12-20T02:39:43;835.90;;;689.37;;
27740;SDS011;15134;48.768;9.184;2023-12-20T02:42:08;837.75;;;692.22;;
27740;SDS011;15134;48.768;9.184;2023-12-20T02:44:34;834.20;;;687.38;;
27740;SDS011;15134;48.768;9.184;2023-12-20T02:47:01;835.78;;;685.17;;
27740;SDS011;15134;48.768;9.184;2023-12-20T02:49:27;838.13;;;693.40;;
27740;SDS011;15134;48.768;9.184;2023-12-20T02:51:53;837.03;;;690.45;;
27740;SDS011;15134;48.768;9.184;2023-12-20T02:54:19;836.63;;;686.17;;
27740;SDS011;15134;48.768;9.184;2023-12-20T02:56:44;838.83;;;693.72;;
27740;SDS011;15134;48.768;9.184;2023-12-20T02:59:10;837.47;;;691.42;;
27740;SDS011;15134;48.768;9.184;2023-12-20T03:01:41;836.65;;;692.45;;
27740;SDS011;15134;48.768;9.184;2023-12-20T03:04:08;834.63;;;684.58;;
27740;SDS011;15134;48.768;9.184;2023-12-20T03:06:33;839.47;;;693.80;;
27740;SDS011;15134;48.768;9.184;2023-12-20T03:08:59;834.30;;;685.72;;
27740;SDS011;15134;48.768;9.184;2023-12-20T03:11:28;835.15;;;686.58;;
27740;SDS011;15134;48.768;9.184;2023-12-20T03:13:57;836.47;;;687.40;;
27740;SDS011;15134;48.768;9.184;2023-12-20T03:16:22;836.33;;;692.50;;
27740;SDS011;15134;48.768;9.184;2023-12-20T03:18:48;839.13;;;693.42;;
27740;SDS011;15134;48.768;9.184;2023-12-20T03:21:14;835.42;;;689.50;;
27740;SDS011;15134;48.768;9.184;2023-12-20T03:23:40;838.47;;;692.47;;
27740;SDS011;15134;48.768;9.184;2023-12-20T03:26:07;836.80;;;691.40;;
27740;SDS011;15134;48.768;9.184;2023-12-20T03:28:33;837.00;;;694.95;;
27740;SDS011;15134;48.768;9.184;2023-12-20T03:30:58;839.93;;;697.27;;
27740;SDS011;15134;48.768;9.184;2023-12-20T03:33:24;836.85;;;693.17;;
27740;SDS011;15134;48.768;9.184;2023-12-20T03:35:50;834.28;;;687.35;;
27740;SDS011;15134;48.768;9.184;2023-12-20T03:38:16;835.72;;;691.42;;
27740;SDS011;15134;48.768;9.184;2023-12-20T03:40:41;834.22;;;686.58;;
27740;SDS011;15134;48.768;9.184;2023-12-20T03:43:07;835.90;;;689.73;;
27740;SDS011;15134;48.768;9.184;2023-12-20T03:45:33;837.10;;;694.72;;
27740;SDS011;15134;48.768;9.184;2023-12-20T03:47:58;834.50;;;686.92;;
27740;SDS011;15134;48.768;9.184;2023-12-20T03:50:27;832.28;;;685.03;;
27740;SDS011;15134;48.768;9.184;2023-12-20T03:52:53;835.42;;;692.17;;
27740;SDS011;15134;48.768;9.184;2023-12-20T03:55:19;839.97;;;686.95;;
27740;SDS011;15134;48.768;9.184;2023-12-20T03:57:45;835.63;;;687.30;;
27740;SDS011;15134;48.768;9.184;2023-12-20T04:00:11;833.90;;;688.63;;
27740;SDS011;15134;48.768;9.184;2023-12-20T04:02:38;836.92;;;692.40;;
27740;SDS011;15134;48.768;9.184;2023-12-20T04:05:05;836.00;;;691.60;;
27740;SDS011;15134;48.768;9.184;2023-12-20T04:07:31;836.05;;;688.28;;
27740;SDS011;15134;48.768;9.184;2023-12-20T04:09:57;835.10;;;690.50;;
27740;SDS011;15134;48.768;9.184;2023-12-20T04:12:23;833.97;;;687.05;;
27740;SDS011;15134;48.768;9.184;2023-12-20T04:14:48;833.85;;;688.33;;
27740;SDS011;15134;48.768;9.184;2023-12-20T04:17:15;834.10;;;686.03;;
27740;SDS011;15134;48.768;9.184;2023-12-20T04:19:41;838.00;;;693.40;;
27740;SDS011;15134;48.768;9.184;2023-12-20T04:22:10;836.22;;;689.20;;
27740;SDS011;15134;48.768;9.184;2023-12-20T04:24:35;839.07;;;696.60;;
27740;SDS011;15134;48.768;9.184;2023-12-20T04:27:01;838.00;;;692.13;;
27740;SDS011;15134;48.768;9.184;2023-12-20T04:29:27;835.05;;;690.63;;
27740;SDS011;15134;48.768;9.184;2023-12-20T04:31:53;833.97;;;686.87;;
27740;SDS011;15134;48.768;9.184;2023-12-20T04:34:19;835.80;;;691.77;;
27740;SDS011;15134;48.768;9.184;2023-12-20T04:36:46;835.03;;;688.20;;
27740;SDS011;15134;48.768;9.184;2023-12-20T04:39:12;835.00;;;689.40;;
27740;SDS011;15134;48.768;9.184;2023-12-20T04:41:40;836.97;;;693.80;;
27740;SDS011;15134;48.768;9.184;2023-12-20T04:44:06;836.83;;;692.58;;
27740;SDS011;15134;48.768;9.184;2023-12-20T04:46:31;832.43;;;682.57;;
27740;SDS011;15134;48.768;9.184;2023-12-20T04:48:57;831.20;;;675.70;;
27740;SDS011;15134;48.768;9.184;2023-12-20T04:51:23;833.42;;;683.35;;
27740;SDS011;15134;48.768;9.184;2023-12-20T04:53:49;833.47;;;681.93;;
27740;SDS011;15134;48.768;9.184;2023-12-20T04:56:15;831.67;;;682.55;;
27740;SDS011;15134;48.768;9.184;2023-12-20T04:58:41;831.25;;;679.78;;
27740;SDS011;15134;48.768;9.184;2023-12-20T05:01:08;829.70;;;678.10;;
27740;SDS011;15134;48.768;9.184;2023-12-20T05:03:34;832.58;;;683.70;;
27740;SDS011;15134;48.768;9.184;2023-12-20T05:06:00;833.40;;;684.95;;
27740;SDS011;15134;48.768;9.184;2023-12-20T05:08:25;833.67;;;686.13;;
27740;SDS011;15134;48.768;9.184;2023-12-20T05:10:53;830.83;;;682.40;;
27740;SDS011;15134;48.768;9.184;2023-12-20T05:13:19;834.67;;;688.47;;
27740;SDS011;15134;48.768;9.184;2023-12-20T05:15:45;829.58;;;676.85;;
27740;SDS011;15134;48.768;9.184;2023-12-20T05:18:12;833.28;;;686.40;;
27740;SDS011;15134;48.768;9.184;2023-12-20T05:20:38;835.80;;;692.08;;
27740;SDS011;15134;48.768;9.184;2023-12-20T05:23:04;833.30;;;686.77;;
27740;SDS011;15134;48.768;9.184;2023-12-20T05:25:30;833.85;;;687.65;;
27740;SDS011;15134;48.768;9.184;2023-12-20T05:27:56;831.72;;;682.35;;
27740;SDS011;15134;48.768;9.184;2023-12-20T05:30:22;831.60;;;682.60;;
27740;SDS011;15134;48.768;9.184;2023-12-20T05:32:48;832.28;;;683.40;;
27740;SDS011;15134;48.768;9.184;2023-12-20T05:35:14;831.83;;;680.08;;
27740;SDS011;15134;48.768;9.184;2023-12-20T05:37:40;831.63;;;683.30;;
27740;SDS011;15134;48.768;9.184;2023-12-20T05:40:06;829.00;;;678.03;;
27740;SDS011;15134;48.768;9.184;2023-12-20T05:42:35;832.80;;;681.22;;
27740;SDS011;15134;48.768;9.184;2023-12-20T05:45:02;831.35;;;681.47;;
27740;SDS011;15134;48.768;9.184;2023-12-20T05:47:29;832.47;;;679.97;;
27740;SDS011;15134;48.768;9.184;2023-12-20T05:49:54;831.47;;;680.65;;
27740;SDS011;15134;48.768;9.184;2023-12-20T05:52:20;834.47;;;690.17;;
27740;SDS011;15134;48.768;9.184;2023-12-20T05:54:46;832.63;;;685.50;;
27740;SDS011;15134;48.768;9.184;2023-12-20T05:57:11;832.67;;;682.90;;
27740;SDS011;15134;48.768;9.184;2023-12-20T05:59:37;832.22;;;681.55;;
27740;SDS011;15134;48.768;9.184;2023-12-20T06:02:03;836.10;;;679.08;;
27740;SDS011;15134;48.768;9.184;2023-12-20T06:04:30;833.72;;;682.38;;
27740;SDS011;15134;48.768;9.184;2023-12-20T06:06:56;832.50;;;680.05;;
27740;SDS011;15134;48.768;9.184;2023-12-20T06:09:21;832.00;;;678.75;;
27740;SDS011;15134;48.768;9.184;2023-12-20T06:11:47;832.35;;;683.88;;
27740;SDS011;15134;48.768;9.184;2023-12-20T06:14:13;831.10;;;679.05;;
27740;SDS011;15134;48.768;9.184;2023-12-20T06:16:38;831.90;;;681.73;;
27740;SDS011;15134;48.768;9.184;2023-12-20T06:19:04;830.20;;;679.90;;
27740;SDS011;15134;48.768;9.184;2023-12-20T06:21:30;831.38;;;682.58;;
27740;SDS011;15134;48.768;9.184;2023-12-20T06:23:56;830.97;;;679.28;;
27740;SDS011;15134;48.768;9.184;2023-12-20T06:26:22;828.38;;;676.92;;
27740;SDS011;15134;48.768;9.184;2023-12-20T06:28:48;832.50;;;684.70;;
27740;SDS011;15134;48.768;9.184;2023-12-20T06:31:14;832.67;;;683.67;;
27740;SDS011;15134;48.768;9.184;2023-12-20T06:33:40;829.45;;;676.20;;
27740;SDS011;15134;48.768;9.184;2023-12-20T06:36:10;831.00;;;682.17;;
27740;SDS011;15134;48.768;9.184;2023-12-20T06:38:38;830.33;;;680.92;;
27740;SDS011;15134;48.768;9.184;2023-12-20T06:41:04;834.42;;;691.80;;
27740;SDS011;15134;48.768;9.184;2023-12-20T06:43:30;833.80;;;688.40;;
27740;SDS011;15134;48.768;9.184;2023-12-20T06:45:56;830.78;;;681.80;;
27740;SDS011;15134;48.768;9.184;2023-12-20T06:48:22;829.83;;;679.50;;
27740;SDS011;15134;48.768;9.184;2023-12-20T06:50:48;833.58;;;686.10;;
27740;SDS011;15134;48.768;9.184;2023-12-20T06:53:13;830.92;;;682.63;;
27740;SDS011;15134;48.768;9.184;2023-12-20T06:55:39;831.65;;;680.00;;
27740;SDS011;15134;48.768;9.184;2023-12-20T06:58:05;832.73;;;683.43;;
27740;SDS011;15134;48.768;9.184;2023-12-20T07:00:31;832.83;;;681.72;;
27740;SDS011;15134;48.768;9.184;2023-12-20T07:02:57;833.50;;;686.90;;
27740;SDS011;15134;48.768;9.184;2023-12-20T07:05:23;831.90;;;681.83;;
27740;SDS011;15134;48.768;9.184;2023-12-20T07:07:49;834.63;;;685.45;;
27740;SDS011;15134;48.768;9.184;2023-12-20T07:10:15;830.03;;;682.33;;
27740;SDS011;15134;48.768;9.184;2023-12-20T07:12:41;832.47;;;683.40;;
27740;SDS011;15134;48.768;9.184;2023-12-20T07:15:06;832.22;;;682.65;;
27740;SDS011;15134;48.768;9.184;2023-12-20T07:17:33;829.65;;;679.60;;
27740;SDS011;15134;48.768;9.184;2023-12-20T07:19:59;835.03;;;690.50;;
27740;SDS011;15134;48.768;9.184;2023-12-20T07:22:29;831.35;;;683.38;;
27740;SDS011;15134;48.768;9.184;2023-12-20T07:24:57;831.42;;;684.17;;
27740;SDS011;15134;48.768;9.184;2023-12-20T07:27:23;833.55;;;684.35;;
27740;SDS011;15134;48.768;9.184;2023-12-20T07:29:49;835.90;;;693.07;;
27740;SDS011;15134;48.768;9.184;2023-12-20T07:32:15;834.50;;;690.33;;
27740;SDS011;15134;48.768;9.184;2023-12-20T07:34:40;834.80;;;690.38;;
27740;SDS011;15134;48.768;9.184;2023-12-20T07:37:06;835.92;;;688.75;;
27740;SDS011;15134;48.768;9.184;2023-12-20T07:39:32;831.13;;;682.28;;
27740;SDS011;15134;48.768;9.184;2023-12-20T07:41:57;834.10;;;686.63;;
27740;SDS011;15134;48.768;9.184;2023-12-20T07:44:23;831.03;;;678.78;;
27740;SDS011;15134;48.768;9.184;2023-12-20T07:46:49;827.93;;;672.47;;
27740;SDS011;15134;48.768;9.184;2023-12-20T07:49:15;832.90;;;681.13;;
27740;SDS011;15134;48.768;9.184;2023-12-20T07:51:40;831.35;;;677.38;;
27740;SDS011;15134;48.768;9.184;2023-12-20T07:54:06;828.47;;;674.80;;
27740;SDS011;15134;48.768;9.184;2023-12-20T07:56:33;829.97;;;676.10;;
27740;SDS011;15134;48.768;9.184;2023-12-20T07:58:58;829.60;;;675.70;;
27740;SDS011;15134;48.768;9.184;2023-12-20T08:01:24;829.35;;;677.45;;
27740;SDS011;15134;48.768;9.184;2023-12-20T08:03:50;832.38;;;680.35;;
27740;SDS011;15134;48.768;9.184;2023-12-20T08:06:16;832.88;;;680.83;;
27740;SDS011;15134;48.768;9.184;2023-12-20T08:08:42;831.25;;;679.53;;
27740;SDS011;15134;48.768;9.184;2023-12-20T08:11:08;830.80;;;677.35;;
27740;SDS011;15134;48.768;9.184;2023-12-20T08:13:34;833.50;;;681.37;;
27740;SDS011;15134;48.768;9.184;2023-12-20T08:15:59;832.20;;;680.97;;
27740;SDS011;15134;48.768;9.184;2023-12-20T08:18:27;831.03;;;680.40;;
27740;SDS011;15134;48.768;9.184;2023-12-20T08:20:53;833.92;;;681.28;;
27740;SDS011;15134;48.768;9.184;2023-12-20T08:23:19;833.30;;;682.50;;
27740;SDS011;15134;48.768;9.184;2023-12-20T08:25:46;830.10;;;675.38;;
27740;SDS011;15134;48.768;9.184;2023-12-20T08:28:12;828.90;;;671.28;;
27740;SDS011;15134;48.768;9.184;2023-12-20T08:30:37;826.05;;;669.97;;
27740;SDS011;15134;48.768;9.184;2023-12-20T08:33:03;825.95;;;666.45;;
27740;SDS011;15134;48.768;9.184;2023-12-20T08:35:29;823.97;;;661.77;;
27740;SDS011;15134;48.768;9.184;2023-12-20T08:37:55;823.38;;;659.10;;
27740;SDS011;15134;48.768;9.184;2023-12-20T08:40:21;826.00;;;665.22;;
27740;SDS011;15134;48.768;9.184;2023-12-20T08:42:48;820.50;;;649.60;;
27740;SDS011;15134;48.768;9.184;2023-12-20T08:45:14;823.27;;;657.97;;
27740;SDS011;15134;48.768;9.184;2023-12-20T08:47:40;820.15;;;650.85;;
27740;SDS011;15134;48.768;9.184;2023-12-20T08:50:06;826.40;;;669.17;;
27740;SDS011;15134;48.768;9.184;2023-12-20T08:52:32;828.78;;;670.47;;
27740;SDS011;15134;48.768;9.184;2023-12-20T08:54:58;829.55;;;676.17;;
27740;SDS011;15134;48.768;9.184;2023-12-20T08:57:25;834.07;;;684.63;;
27740;SDS011;15134;48.768;9.184;2023-12-20T08:59:50;830.22;;;673.13;;
27740;SDS011;15134;48.768;9.184;2023-12-20T09:02:16;833.83;;;680.15;;
27740;SDS011;15134;48.768;9.184;2023-12-20T09:04:43;832.70;;;679.13;;
27740;SDS011;15134;48.768;9.184;2023-12-20T09:07:21;833.40;;;680.65;;
27740;SDS011;15134;48.768;9.184;2023-12-20T09:09:48;832.35;;;677.28;;
27740;SDS011;15134;48.768;9.184;2023-12-20T09:12:14;829.58;;;672.78;;
27740;SDS011;15134;48.768;9.184;2023-12-20T09:14:40;832.53;;;675.25;;
27740;SDS011;15134;48.768;9.184;2023-12-20T09:17:06;833.50;;;681.00;;
27740;SDS011;15134;48.768;9.184;2023-12-20T09:19:33;833.90;;;681.75;;
27740;SDS011;15134;48.768;9.184;2023-12-20T09:21:59;832.70;;;675.50;;
27740;SDS011;15134;48.768;9.184;2023-12-20T09:24:25;833.45;;;678.45;;
27740;SDS011;15134;48.768;9.184;2023-12-20T09:26:51;825.95;;;666.83;;
27740;SDS011;15134;48.768;9.184;2023-12-20T09:29:17;829.43;;;674.13;;
27740;SDS011;15134;48.768;9.184;2023-12-20T09:31:44;829.17;;;674.97;;
27740;SDS011;15134;48.768;9.184;2023-12-20T09:34:11;829.95;;;671.38;;
27740;SDS011;15134;48.768;9.184;2023-12-20T09:36:38;832.75;;;675.17;;
27740;SDS011;15134;48.768;9.184;2023-12-20T09:39:07;827.63;;;667.80;;
27740;SDS011;15134;48.768;9.184;2023-12-20T09:41:34;825.22;;;660.97;;
27740;SDS011;15134;48.768;9.184;2023-12-20T09:44:07;823.08;;;655.13;;
27740;SDS011;15134;48.768;9.184;2023-12-20T09:46:36;821.75;;;652.60;;
27740;SDS011;15134;48.768;9.184;2023-12-20T09:49:08;819.63;;;649.10;;
27740;SDS011;15134;48.768;9.184;2023-12-20T09:51:34;822.27;;;652.50;;
27740;SDS011;15134;48.768;9.184;2023-12-20T09:54:01;821.70;;;646.20;;
27740;SDS011;15134;48.768;9.184;2023-12-20T09:56:29;821.50;;;651.03;;
27740;SDS011;15134;48.768;9.184;2023-12-20T09:58:55;824.60;;;653.97;;
27740;SDS011;15134;48.768;9.184;2023-12-20T10:01:21;821.30;;;649.65;;
27740;SDS011;15134;48.768;9.184;2023-12-20T10:03:48;823.10;;;653.00;;
27740;SDS011;15134;48.768;9.184;2023-12-20T10:06:18;824.42;;;650.80;;
27740;SDS011;15134;48.768;9.184;2023-12-20T10:08:43;825.95;;;655.97;;
27740;SDS011;15134;48.768;9.184;2023-12-20T10:11:09;821.33;;;650.73;;
27740;SDS011;15134;48.768;9.184;2023-12-20T10:13:38;814.30;;;631.47;;
27740;SDS011;15134;48.768;9.184;2023-12-20T10:16:06;814.72;;;634.67;;
27740;SDS011;15134;48.768;9.184;2023-12-20T10:18:32;814.20;;;631.80;;
27740;SDS011;15134;48.768;9.184;2023-12-20T10:20:58;821.37;;;648.43;;
27740;SDS011;15134;48.768;9.184;2023-12-20T10:23:25;819.83;;;647.55;;
27740;SDS011;15134;48.768;9.184;2023-12-20T10:25:57;825.43;;;656.07;;
27740;SDS011;15134;48.768;9.184;2023-12-20T10:28:24;829.15;;;665.55;;
27740;SDS011;15134;48.768;9.184;2023-12-20T10:30:53;829.42;;;669.45;;
27740;SDS011;15134;48.768;9.184;2023-12-20T10:33:25;828.78;;;667.45;;
27740;SDS011;15134;48.768;9.184;2023-12-20T10:35:51;830.88;;;669.88;;
27740;SDS011;15134;48.768;9.184;2023-12-20T10:38:18;826.35;;;664.55;;
27740;SDS011;15134;48.768;9.184;2023-12-20T10:40:45;829.40;;;667.88;;
27740;SDS011;15134;48.768;9.184;2023-12-20T10:43:11;829.08;;;669.50;;
27740;SDS011;15134;48.768;9.184;2023-12-20T10:45:38;832.17;;;675.87;;
27740;SDS011;15134;48.768;9.184;2023-12-20T10:48:04;833.95;;;682.30;;
27740;SDS011;15134;48.768;9.184;2023-12-20T10:50:30;835.30;;;681.80;;
27740;SDS011;15134;48.768;9.184;2023-12-20T10:52:57;835.65;;;686.33;;
27740;SDS011;15134;48.768;9.184;2023-12-20T10:55:24;835.30;;;686.35;;
27740;SDS011;15134;48.768;9.184;2023-12-20T10:58:00;839.47;;;694.00;;
27740;SDS011;15134;48.768;9.184;2023-12-20T11:00:30;840.20;;;696.72;;
27740;SDS011;15134;48.768;9.184;2023-12-20T11:02:57;839.88;;;698.60;;
27740;SDS011;15134;48.768;9.184;2023-12-20T11:08:27;839.87;;;693.23;;
27740;SDS011;15134;48.768;9.184;2023-12-20T11:11:00;835.10;;;685.30;;
27740;SDS011;15134;48.768;9.184;2023-12-20T11:13:40;836.50;;;686.60;;
27740;SDS011;15134;48.768;9.184;2023-12-20T11:16:19;838.47;;;689.80;;
27740;SDS011;15134;48.768;9.184;2023-12-20T11:18:45;835.58;;;691.03;;
27740;SDS011;15134;48.768;9.184;2023-12-20T11:21:11;841.75;;;700.83;;
27740;SDS011;15134;48.768;9.184;2023-12-20T11:23:39;845.83;;;706.42;;
27740;SDS011;15134;48.768;9.184;2023-12-20T11:26:08;837.63;;;690.38;;
27740;SDS011;15134;48.768;9.184;2023-12-20T11:28:33;839.50;;;694.90;;
27740;SDS011;15134;48.768;9.184;2023-12-20T11:31:00;844.13;;;701.47;;
27740;SDS011;15134;48.768;9.184;2023-12-20T11:33:35;838.75;;;691.20;;
27740;SDS011;15134;48.768;9.184;2023-12-20T11:36:02;837.80;;;693.60;;
27740;SDS011;15134;48.768;9.184;2023-12-20T11:38:36;834.80;;;682.10;;
27740;SDS011;15134;48.768;9.184;2023-12-20T11:41:05;833.63;;;681.50;;
27740;SDS011;15134;48.768;9.184;2023-12-20T11:43:37;830.08;;;676.00;;
27740;SDS011;15134;48.768;9.184;2023-12-20T11:46:04;833.72;;;678.83;;
27740;SDS011;15134;48.768;9.184;2023-12-20T11:48:33;833.05;;;678.95;;
27740;SDS011;15134;48.768;9.184;2023-12-20T11:51:13;831.42;;;674.80;;
27740;SDS011;15134;48.768;9.184;2023-12-20T11:53:39;828.30;;;672.77;;
27740;SDS011;15134;48.768;9.184;2023-12-20T11:56:06;835.40;;;682.58;;
27740;SDS011;15134;48.768;9.184;2023-12-20T11:58:32;833.70;;;677.95;;
27740;SDS011;15134;48.768;9.184;2023-12-20T12:01:01;834.25;;;684.08;;
27740;SDS011;15134;48.768;9.184;2023-12-20T12:03:29;833.17;;;676.92;;
27740;SDS011;15134;48.768;9.184;2023-12-20T12:05:55;834.90;;;682.60;;
27740;SDS011;15134;48.768;9.184;2023-12-20T12:08:21;822.17;;;655.25;;
27740;SDS011;15134;48.768;9.184;2023-12-20T12:10:47;825.17;;;658.38;;
27740;SDS011;15134;48.768;9.184;2023-12-20T12:13:13;827.23;;;666.23;;
27740;SDS011;15134;48.768;9.184;2023-12-20T12:15:41;826.13;;;661.43;;
27740;SDS011;15134;48.768;9.184;2023-12-20T12:18:07;826.03;;;666.65;;
27740;SDS011;15134;48.768;9.184;2023-12-20T12:20:34;826.95;;;664.17;;
27740;SDS011;15134;48.768;9.184;2023-12-20T12:23:03;825.35;;;664.13;;
27740;SDS011;15134;48.768;9.184;2023-12-20T12:25:31;828.92;;;667.42;;
27740;SDS011;15134;48.768;9.184;2023-12-20T12:28:00;833.63;;;681.10;;
27740;SDS011;15134;48.768;9.184;2023-12-20T12:30:26;831.67;;;672.60;;
27740;SDS011;15134;48.768;9.184;2023-12-20T12:32:52;836.28;;;679.05;;
27740;SDS011;15134;48.768;9.184;2023-12-20T12:35:19;834.53;;;682.10;;
27740;SDS011;15134;48.768;9.184;2023-12-20T12:37:45;830.60;;;676.40;;
27740;SDS011;15134;48.768;9.184;2023-12-20T12:40:15;832.95;;;680.88;;
27740;SDS011;15134;48.768;9.184;2023-12-20T12:42:42;836.10;;;688.42;;
27740;SDS011;15134;48.768;9.184;2023-12-20T12:45:10;835.65;;;685.35;;
27740;SDS011;15134;48.768;9.184;2023-12-20T12:47:39;833.35;;;682.97;;
27740;SDS011;15134;48.768;9.184;2023-12-20T12:50:05;835.58;;;682.20;;
27740;SDS011;15134;48.768;9.184;2023-12-20T12:52:31;836.10;;;686.13;;
27740;SDS011;15134;48.768;9.184;2023-12-20T12:54:57;831.80;;;678.88;;
27740;SDS011;15134;48.768;9.184;2023-12-20T12:57:23;834.97;;;680.93;;
27740;SDS011;15134;48.768;9.184;2023-12-20T12:59:49;835.80;;;679.83;;
27740;SDS011;15134;48.768;9.184;2023-12-20T13:02:14;831.28;;;673.65;;
27740;SDS011;15134;48.768;9.184;2023-12-20T13:04:41;833.58;;;680.70;;
27740;SDS011;15134;48.768;9.184;2023-12-20T13:07:08;833.17;;;678.95;;
27740;SDS011;15134;48.768;9.184;2023-12-20T13:09:36;834.08;;;683.88;;
27740;SDS011;15134;48.768;9.184;2023-12-20T13:12:02;834.67;;;683.67;;
27740;SDS011;15134;48.768;9.184;2023-12-20T13:14:30;835.47;;;686.83;;
27740;SDS011;15134;48.768;9.184;2023-12-20T13:16:58;835.08;;;682.65;;
27740;SDS011;15134;48.768;9.184;2023-12-20T13:19:23;833.73;;;682.83;;
27740;SDS011;15134;48.768;9.184;2023-12-20T13:21:49;835.08;;;685.33;;
27740;SDS011;15134;48.768;9.184;2023-12-20T13:24:15;835.45;;;686.78;;
27740;SDS011;15134;48.768;9.184;2023-12-20T13:26:41;835.88;;;686.55;;
27740;SDS011;15134;48.768;9.184;2023-12-20T13:29:06;836.87;;;688.23;;
27740;SDS011;15134;48.768;9.184;2023-12-20T13:31:32;839.30;;;694.37;;
27740;SDS011;15134;48.768;9.184;2023-12-20T13:33:58;841.03;;;696.90;;
27740;SDS011;15134;48.768;9.184;2023-12-20T13:36:25;838.00;;;684.90;;
27740;SDS011;15134;48.768;9.184;2023-12-20T13:38:52;837.47;;;688.08;;
27740;SDS011;15134;48.768;9.184;2023-12-20T13:41:18;839.92;;;684.38;;
27740;SDS011;15134;48.768;9.184;2023-12-20T13:43:44;840.63;;;689.93;;
27740;SDS011;15134;48.768;9.184;2023-12-20T13:46:10;842.23;;;701.90;;
27740;SDS011;15134;48.768;9.184;2023-12-20T13:48:36;845.13;;;700.33;;
27740;SDS011;15134;48.768;9.184;2023-12-20T13:51:03;847.47;;;706.03;;
27740;SDS011;15134;48.768;9.184;2023-12-20T13:53:29;842.47;;;698.60;;
27740;SDS011;15134;48.768;9.184;2023-12-20T13:55:55;838.83;;;690.83;;